Time;durP1;ratioP1;P1;durP2;ratioP2;P2;SDS_P1;SDS_P2;PMS_P1;PMS_P2;Temp;Humidity;BMP_temperature;BMP_pressure;BME280_temperature;BME280_humidity;BME280_pressure;Samples;Min_cycle;Max_cycle;Signal;HPM_P1;HPM_P2
2021/12/25 00:02:54;;;;;;;6.03;1.00;;;;;;;-6.18;100.00;100664.28;10356981;28;20030;-90
2021/12/25 00:07:55;;;;;;;6.10;1.00;;;;;;;-5.37;100.00;100698.25;10355742;28;20497;-90
2021/12/25 00:12:55;;;;;;;1.47;0.63;;;;;;;-8.84;100.00;100252.19;10355648;28;20128;-90
2021/12/25 00:17:56;;;;;;;4.60;0.70;;;;;;;-3.79;100.00;100984.88;10353001;28;20080;-84
2021/12/25 00:22:56;;;;;;;1.13;0.47;;;;;;;-9.55;100.00;100330.69;10361800;28;20641;-84
2021/12/25 00:28:16;;;;;;;6.73;0.60;;;;;;;-5.75;100.00;100904.88;10314287;28;20050;-90
2021/12/25 00:33:35;;;;;;;2.37;0.57;;;;;;;-5.86;100.00;100662.94;10319415;28;20038;-84
2021/12/25 00:38:37;;;;;;;3.60;0.70;;;;;;;-6.70;100.00;100601.47;10316540;28;20038;-84
2021/12/25 00:43:37;;;;;;;2.20;0.50;;;;;;;-6.77;100.00;100611.06;10313336;28;20042;-89
2021/12/25 00:48:38;;;;;;;4.17;0.60;;;;;;;-5.77;100.00;100793.41;10332529;28;20030;-88
2021/12/25 00:53:38;;;;;;;4.30;0.60;;;;;;;-4.21;100.00;101075.13;10342956;28;20461;-89
2021/12/25 00:58:39;;;;;;;5.00;0.73;;;;;;;-7.71;100.00;100529.06;10353073;28;20102;-89
2021/12/25 01:03:39;;;;;;;3.60;0.53;;;;;;;-7.35;100.00;100572.00;10352653;28;20041;-84
2021/12/25 01:08:40;;;;;;;2.87;0.60;;;;;;;-5.25;100.00;101129.09;10350674;28;20037;-84
2021/12/25 01:13:47;;;;;;;3.83;0.53;;;;;;;-6.36;100.00;100697.25;10350348;28;20095;-84
2021/12/25 01:49:56;;;;;;;2.27;0.50;;;;;;;-6.47;100.00;100780.47;10347416;28;20034;-88
2021/12/25 01:55:00;;;;;;;0.83;0.30;;;;;;;-5.44;100.00;101013.75;10355904;28;20062;-88
2021/12/25 02:00:01;;;;;;;2.00;0.50;;;;;;;-8.37;100.00;100504.94;10326038;28;20381;-88
2021/12/25 02:05:01;;;;;;;1.00;0.40;;;;;;;-5.54;100.00;100995.88;10357297;28;20124;-89
2021/12/25 02:10:03;;;;;;;1.67;0.40;;;;;;;-9.83;100.00;100264.88;10349177;28;20072;-85
2021/12/25 02:15:09;;;;;;;1.10;0.30;;;;;;;-5.88;100.00;100947.28;10381138;28;20041;-84
2021/12/25 02:20:24;;;;;;;1.95;0.57;;;;;;;-5.81;100.00;100942.16;10364451;28;20068;-84
2021/12/25 02:25:25;;;;;;;0.73;0.40;;;;;;;-6.26;100.00;100900.84;10381047;28;20367;-84
2021/12/25 02:30:25;;;;;;;3.77;1.47;;;;;;;-6.47;100.00;100847.44;10364047;28;20060;-84
2021/12/25 02:35:26;;;;;;;1.03;0.40;;;;;;;-8.76;100.00;100561.84;10315096;28;20045;-88
2021/12/25 02:40:26;;;;;;;3.27;0.37;;;;;;;-5.82;100.00;100994.13;10343508;28;20092;-88
2021/12/25 02:45:27;;;;;;;1.37;0.97;;;;;;;-5.34;100.00;101078.97;10336740;28;20061;-87
2021/12/25 02:50:29;;;;;;;1.70;0.33;;;;;;;-6.76;100.00;100868.91;10372179;28;20034;-87
2021/12/25 02:55:30;;;;;;;0.63;0.20;;;;;;;-6.18;100.00;100999.25;10356658;28;20072;-88
2021/12/25 03:00:36;;;;;;;5.83;0.70;;;;;;;-6.48;100.00;100954.75;10356575;28;20037;-84
2021/12/25 03:05:36;;;;;;;1.17;0.20;;;;;;;-5.51;100.00;101089.47;10335023;28;20061;-90
2021/12/25 03:10:37;;;;;;;1.60;0.20;;;;;;;-6.60;100.00;101055.78;10350820;28;20136;-89
2021/12/25 03:15:46;;;;;;;3.13;0.63;;;;;;;-5.94;100.00;101023.75;10386979;28;20478;-87
2021/12/25 03:20:47;;;;;;;0.97;0.33;;;;;;;-10.97;100.00;100288.13;10388543;28;20045;-89
2021/12/25 03:25:49;;;;;;;1.53;0.33;;;;;;;-6.62;100.00;100964.88;10367526;28;20049;-87
2021/12/25 03:30:49;;;;;;;1.07;0.30;;;;;;;-8.20;100.00;100735.75;10356522;28;20115;-89
2021/12/25 03:35:50;;;;;;;1.37;0.30;;;;;;;-6.20;100.00;101038.75;10387349;28;20045;-86
2021/12/25 03:40:51;;;;;;;0.47;0.30;;;;;;;-6.66;100.00;100939.34;10403267;28;20512;-86
2021/12/25 03:45:51;;;;;;;0.67;0.30;;;;;;;-6.27;100.00;101048.34;10386866;28;20482;-86
2021/12/25 04:06:34;;;;;;;0.87;0.30;;;;;;;-6.54;100.00;100988.28;10419323;28;20033;-89
2021/12/25 04:11:35;;;;;;;1.40;0.30;;;;;;;-7.61;100.00;100879.22;10402795;28;20036;-86
2021/12/25 04:16:36;;;;;;;3.70;0.40;;;;;;;-7.94;100.00;100821.59;10409948;28;20409;-86
2021/12/25 04:21:41;;;;;;;1.23;0.30;;;;;;;-6.03;100.00;101145.28;10417789;28;20057;-86
2021/12/25 04:26:43;;;;;;;1.13;0.30;;;;;;;-7.64;100.00;100881.34;10370820;28;20045;-86
2021/12/25 05:03:48;;;;;;;1.33;0.70;;;;;;;-9.28;100.00;100713.09;10387626;28;20474;-84
2021/12/25 05:08:50;;;;;;;1.23;0.40;;;;;;;-7.16;100.00;101004.50;10369515;28;20543;-84
2021/12/25 05:13:50;;;;;;;5.23;0.87;;;;;;;-7.78;100.00;101002.84;10404777;28;20052;-84
2021/12/25 05:18:51;;;;;;;0.50;0.20;;;;;;;-8.44;100.00;100803.69;10383279;28;20044;-87
2021/12/25 05:23:52;;;;;;;1.83;0.30;;;;;;;-6.90;100.00;101140.53;10382904;28;20053;-87
2021/12/25 05:29:00;;;;;;;2.10;0.30;;;;;;;-8.46;100.00;100891.09;10390362;28;20093;-87
2021/12/25 05:34:00;;;;;;;2.00;0.43;;;;;;;-6.85;100.00;101116.88;10328432;28;20498;-84
2021/12/25 05:39:04;;;;;;;4.70;0.57;;;;;;;-8.27;100.00;100881.47;10326595;28;20073;-87
2021/12/25 05:44:05;;;;;;;1.90;0.30;;;;;;;-7.26;100.00;101062.47;10344009;28;20048;-87
2021/12/25 05:49:05;;;;;;;0.97;0.30;;;;;;;-8.51;100.00;100920.03;10365734;28;20363;-87
2021/12/25 05:54:06;;;;;;;1.30;0.40;;;;;;;-7.26;100.00;101046.44;10325823;28;20506;-87
2021/12/25 05:59:07;;;;;;;0.30;0.20;;;;;;;-7.31;100.00;101086.13;10332256;28;20116;-84
2021/12/25 06:04:07;;;;;;;0.90;0.33;;;;;;;-8.98;100.00;100776.28;10309053;28;20073;-83
2021/12/25 06:09:08;;;;;;;0.63;0.50;;;;;;;-7.30;100.00;101143.97;10332094;28;20037;-87
2021/12/25 06:14:11;;;;;;;1.80;0.40;;;;;;;-7.66;100.00;101038.38;10347625;28;20045;-84
2021/12/25 06:19:11;;;;;;;1.27;0.30;;;;;;;-7.37;100.00;101258.69;10309702;28;20045;-83
2021/12/25 06:24:14;;;;;;;0.87;0.40;;;;;;;-9.97;100.00;100645.06;10308924;28;20473;-88
2021/12/25 06:29:19;;;;;;;6.80;0.50;;;;;;;-8.20;100.00;100976.16;10325395;28;20479;-87
2021/12/25 06:34:20;;;;;;;3.90;0.88;;;;;;;-6.67;100.00;101210.81;10339464;28;20129;-84
2021/12/25 06:39:20;;;;;;;0.97;0.27;;;;;;;-6.90;100.00;101196.75;10364868;28;20034;-88
2021/12/25 06:44:24;;;;;;;4.10;0.70;;;;;;;-7.17;100.00;101141.09;10349287;28;20088;-88
2021/12/25 06:49:25;;;;;;;1.33;0.50;;;;;;;-6.71;100.00;101234.31;10381955;28;20033;-88
2021/12/25 06:54:25;;;;;;;5.33;0.50;;;;;;;-8.41;100.00;101038.41;10348798;28;20049;-88
2021/12/25 06:59:26;;;;;;;1.23;0.40;;;;;;;-7.25;100.00;101248.78;10353485;28;20419;-84
2021/12/25 07:04:26;;;;;;;4.03;0.30;;;;;;;-7.73;100.00;101177.03;10307456;28;20042;-84
2021/12/25 07:09:27;;;;;;;2.20;0.60;;;;;;;-7.10;100.00;101228.75;10316956;28;20454;-84
2021/12/25 07:14:27;;;;;;;0.57;0.30;;;;;;;-9.59;100.00;101109.19;10363542;28;20041;-84
2021/12/25 07:19:27;;;;;;;0.80;0.50;;;;;;;-7.54;100.00;101173.69;10347587;28;20038;-88
2021/12/25 07:24:28;;;;;;;2.17;0.50;;;;;;;-10.38;100.00;100729.19;10356147;28;20045;-84
2021/12/25 07:29:29;;;;;;;2.93;0.63;;;;;;;-10.48;100.00;100749.53;10345298;28;20140;-88
2021/12/25 07:34:29;;;;;;;1.53;0.60;;;;;;;-7.25;100.00;101315.66;10337736;28;20033;-89
2021/12/25 07:39:30;;;;;;;4.43;0.90;;;;;;;-7.27;100.00;101237.38;10370325;28;20064;-83
2021/12/25 07:44:30;;;;;;;4.20;1.03;;;;;;;-10.33;100.00;100762.59;10381065;28;20038;-84
2021/12/25 07:49:32;;;;;;;4.87;0.60;;;;;;;-10.38;100.00;100833.00;10313477;28;20132;-83
2021/12/25 07:54:32;;;;;;;1.60;0.67;;;;;;;-10.40;100.00;100752.44;10345458;28;20111;-84
2021/12/25 07:59:33;;;;;;;2.37;0.40;;;;;;;-9.23;100.00;100929.50;10329046;28;20108;-83
2021/12/25 08:04:33;;;;;;;4.97;0.90;;;;;;;-9.72;100.00;101040.03;10328815;28;20064;-84
2021/12/25 08:09:35;;;;;;;3.40;0.80;;;;;;;-7.55;100.00;101206.72;10345056;28;22010;-84
2021/12/25 08:14:36;;;;;;;4.87;0.77;;;;;;;-12.39;100.00;100488.00;10330805;28;20454;-83
2021/12/25 08:19:36;;;;;;;1.30;0.67;;;;;;;-7.59;100.00;101222.16;10369510;28;20065;-88
2021/12/25 08:24:37;;;;;;;3.50;0.73;;;;;;;-10.61;100.00;100925.25;10369603;28;20048;-89
2021/12/25 08:29:37;;;;;;;4.43;0.73;;;;;;;-7.29;100.00;101266.06;10369978;28;20056;-88
2021/12/25 08:34:38;;;;;;;2.47;0.80;;;;;;;-6.97;100.00;101316.84;10357417;28;20050;-88
2021/12/25 08:39:39;;;;;;;8.47;1.10;;;;;;;-8.24;100.00;101117.09;10312628;28;20046;-88
2021/12/25 08:44:52;;;;;;;3.73;0.97;;;;;;;-7.83;100.00;101187.66;10339198;28;20033;-84
2021/12/25 08:49:52;;;;;;;3.30;0.70;;;;;;;-11.30;100.00;100603.53;10371108;28;20387;-84
2021/12/25 08:54:53;;;;;;;1.33;0.40;;;;;;;-6.68;100.00;101414.44;10343608;28;20050;-88
2021/12/25 08:59:56;;;;;;;1.83;0.70;;;;;;;-11.17;100.00;100608.72;10366102;28;20414;-89
2021/12/25 09:04:56;;;;;;;2.50;0.70;;;;;;;-7.30;100.00;101275.06;10329027;28;20048;-88
2021/12/25 09:09:57;;;;;;;3.90;1.00;;;;;;;-7.01;100.00;101408.25;10311635;28;20034;-88
2021/12/25 09:14:57;;;;;;;2.13;0.57;;;;;;;-7.31;100.00;101209.16;10322126;28;20116;-88
2021/12/25 09:19:58;;;;;;;3.20;0.60;;;;;;;-7.77;100.00;101335.97;10311370;28;20034;-88
2021/12/25 09:24:58;;;;;;;1.00;0.60;;;;;;;-8.13;100.00;101068.13;10319597;28;20486;-84
2021/12/25 09:29:59;;;;;;;4.67;1.17;;;;;;;-6.79;100.00;101260.91;10327678;28;20042;-84
2021/12/25 09:35:00;;;;;;;1.13;0.70;;;;;;;-7.65;100.00;101138.97;10334607;28;20045;-88
2021/12/25 09:40:01;;;;;;;3.67;1.53;;;;;;;-8.02;100.00;101035.16;10311314;28;20065;-88
2021/12/25 09:45:02;;;;;;;0.90;0.40;;;;;;;-12.05;100.00;100384.59;10342502;28;20034;-84
2021/12/25 09:50:03;;;;;;;1.73;0.80;;;;;;;-7.37;100.00;101215.03;10342448;28;20026;-90
2021/12/25 09:55:04;;;;;;;2.93;0.60;;;;;;;-8.03;100.00;101030.81;10356670;28;20025;-84
2021/12/25 10:00:13;;;;;;;3.50;1.37;;;;;;;-8.26;100.00;100995.34;10324992;28;20494;-85
2021/12/25 10:05:23;;;;;;;3.33;0.73;;;;;;;-6.55;100.00;101247.25;10326439;28;20034;-89
2021/12/25 10:10:24;;;;;;;2.73;0.70;;;;;;;-8.09;100.00;101010.78;10325725;28;20030;-86
2021/12/25 10:15:25;;;;;;;7.30;0.60;;;;;;;-6.24;100.00;101246.34;10309599;28;20064;-85
2021/12/25 10:20:29;;;;;;;4.00;0.80;;;;;;;-6.14;100.00;101408.91;10325019;28;20030;-85
2021/12/25 10:25:35;;;;;;;2.43;0.60;;;;;;;-10.87;100.00;100759.69;10340203;28;20057;-85
2021/12/25 10:30:45;;;;;;;;;;;;;;;-5.21;100.00;101357.78;10326112;28;20445;-88
2021/12/25 10:35:45;;;;;;;1.70;0.77;;;;;;;-7.78;100.00;100955.56;10356784;28;19968;-84
2021/12/25 10:40:46;;;;;;;1.73;0.60;;;;;;;-6.35;100.00;101173.13;10339961;28;20101;-84
2021/12/25 10:46:00;;;;;;;6.73;0.70;;;;;;;-6.79;100.00;101116.34;10323994;28;20042;-88
2021/12/25 10:51:00;;;;;;;4.20;0.63;;;;;;;-5.57;100.00;101400.38;10326445;28;20449;-91
2021/12/25 10:56:09;;;;;;;5.20;0.67;;;;;;;-7.31;100.00;100979.97;10364020;28;20060;-90
2021/12/25 11:01:11;;;;;;;1.53;0.63;;;;;;;-6.48;100.00;101081.47;10340237;28;20394;-85
2021/12/25 11:06:16;;;;;;;2.27;0.70;;;;;;;-5.33;100.00;101174.59;10331054;28;20575;-85
2021/12/25 11:11:18;;;;;;;2.67;1.37;;;;;;;-7.27;100.00;100801.31;10374027;28;20037;-83
2021/12/25 11:16:27;;;;;;;2.27;1.07;;;;;;;-7.29;100.00;100875.50;10359768;28;20133;-92
2021/12/25 11:21:55;;;;;;;4.07;0.67;;;;;;;-3.71;100.00;101330.19;10352832;28;20073;-91
2021/12/25 11:27:02;;;;;;;5.00;1.53;;;;;;;-9.27;100.00;100609.94;10355826;28;20121;-84
2021/12/25 11:32:04;;;;;;;2.13;0.73;;;;;;;-4.88;100.00;101176.59;10385029;28;20041;-83
2021/12/25 11:37:05;;;;;;;2.23;0.60;;;;;;;-4.41;100.00;101248.28;10402216;28;20493;-84
2021/12/25 11:42:10;;;;;;;4.37;0.60;;;;;;;-5.78;100.00;101092.88;10381626;28;20176;-84
2021/12/25 11:47:39;;;;;;;2.67;0.50;;;;;;;-3.35;100.00;101334.78;10380401;28;20032;-84
2021/12/25 11:52:55;;;;;;;1.77;0.43;;;;;;;-4.73;100.00;101099.94;10403096;28;20036;-90
2021/12/25 11:58:16;;;;;;;;;;;;;;;-3.14;100.00;101334.50;10405419;28;20092;-83
2021/12/25 12:03:35;;;;;;;2.03;0.57;;;;;;;-2.93;100.00;101331.50;10403055;28;20006;-90
2021/12/25 12:08:58;;;;;;;2.27;0.77;;;;;;;-9.00;100.00;100326.63;10405993;28;20067;-91
2021/12/25 12:14:18;;;;;;;3.97;0.70;;;;;;;-4.82;100.00;101035.50;10426731;28;20036;-91
2021/12/25 12:19:31;;;;;;;0.93;0.53;;;;;;;-3.07;100.00;101384.91;10406030;28;20501;-91
2021/12/25 12:29:38;;;;;;;0.77;0.40;;;;;;;-2.99;100.00;101310.56;10375555;28;20060;-92
2021/12/25 12:34:40;;;;;;;1.40;0.50;;;;;;;-6.38;100.00;100849.25;10363235;28;20052;-84
2021/12/25 12:39:53;;;;;;;1.07;0.60;;;;;;;-3.01;100.00;101305.34;10363762;28;20042;-93
2021/12/25 12:45:29;;;;;;;1.07;0.50;;;;;;;-3.72;100.00;101209.25;10351369;28;20517;-92
2021/12/25 12:50:31;;;;;;;1.10;0.50;;;;;;;-5.71;100.00;101061.81;10333446;28;20046;-85
2021/12/25 12:55:33;;;;;;;4.43;0.80;;;;;;;-4.42;100.00;100946.44;10352238;28;20033;-85
2021/12/25 13:00:33;;;;;;;8.00;0.83;;;;;;;-2.80;100.00;101213.38;10362005;28;20038;-85
2021/12/25 13:05:42;;;;;;;1.57;0.70;;;;;;;-2.14;100.00;101116.63;10325657;28;20049;-90
2021/12/25 13:10:51;;;;;;;4.07;0.70;;;;;;;-2.82;100.00;100967.50;10357725;28;20037;-86
2021/12/25 13:16:08;;;;;;;1.73;0.50;;;;;;;-4.10;99.74;100558.66;10336695;28;20049;-92
2021/12/25 13:21:27;;;;;;;2.05;0.60;;;;;;;-1.56;91.37;100888.03;10340491;28;20025;-91
2021/12/25 13:26:35;;;;;;;2.58;0.63;;;;;;;0.42;86.75;101040.72;10333490;28;20088;-91
2021/12/25 13:31:38;;;;;;;1.05;0.70;;;;;;;-2.75;82.92;100682.91;10347669;28;20076;-92
2021/12/25 13:36:39;;;;;;;3.58;0.70;;;;;;;-2.54;84.09;100721.91;10378649;28;20473;-90
2021/12/25 13:41:41;;;;;;;3.03;1.17;;;;;;;-0.37;87.81;101300.69;10389481;28;20397;-92
2021/12/25 13:46:48;;;;;;;3.73;0.70;;;;;;;-6.03;94.46;100788.78;10384993;28;20030;-93
2021/12/25 13:51:49;;;;;;;3.17;0.80;;;;;;;-5.43;100.00;100910.81;10402209;28;20052;-85
2021/12/25 13:56:51;;;;;;;4.97;0.80;;;;;;;-4.52;100.00;101074.66;10403828;28;20069;-90
2021/12/25 14:02:12;;;;;;;7.17;0.80;;;;;;;-8.60;100.00;100467.91;10406029;28;20476;-91
2021/12/25 14:07:14;;;;;;;1.27;0.70;;;;;;;-7.25;100.00;100657.56;10396950;28;20485;-90
2021/12/25 14:12:15;;;;;;;2.70;0.73;;;;;;;-5.02;100.00;101177.94;10382497;28;20037;-84
2021/12/25 14:17:15;;;;;;;3.53;1.33;;;;;;;-5.01;100.00;101117.00;10398613;28;20049;-91
2021/12/25 14:22:20;;;;;;;1.00;0.87;;;;;;;-3.55;100.00;101539.47;10383802;28;20048;-90
2021/12/25 14:27:24;;;;;;;1.27;0.60;;;;;;;-4.55;100.00;101214.66;10401282;28;20164;-90
2021/12/25 14:32:27;;;;;;;1.37;0.77;;;;;;;-6.06;100.00;100960.59;10408344;28;20044;-91
2021/12/25 14:37:29;;;;;;;6.77;0.70;;;;;;;-4.37;100.00;101222.81;10380330;28;20100;-90
2021/12/25 14:42:44;;;;;;;2.07;0.73;;;;;;;-8.58;100.00;100663.44;10366665;28;20041;-92
2021/12/25 14:47:46;;;;;;;3.83;1.03;;;;;;;-7.44;100.00;100884.91;10384531;28;20038;-91
2021/12/25 14:53:04;;;;;;;3.63;1.13;;;;;;;-8.34;100.00;100804.56;10369380;28;20037;-90
2021/12/25 14:58:07;;;;;;;4.63;0.90;;;;;;;-4.52;100.00;101364.88;10391070;28;20493;-84
2021/12/25 15:03:12;;;;;;;1.77;0.90;;;;;;;-5.92;100.00;101173.75;10384980;28;20052;-84
2021/12/25 15:08:27;;;;;;;3.88;1.08;;;;;;;-4.98;100.00;101323.47;10366318;28;20056;-84
2021/12/25 15:13:27;;;;;;;1.80;0.83;;;;;;;-5.67;100.00;101244.75;10397615;28;20304;-90
2021/12/25 15:18:29;;;;;;;1.87;0.93;;;;;;;-9.31;100.00;100739.97;10382957;28;20124;-93
2021/12/25 15:23:31;;;;;;;6.13;1.10;;;;;;;-5.65;100.00;101315.22;10382222;28;20136;-85
2021/12/25 15:28:32;;;;;;;4.30;1.13;;;;;;;-7.92;100.00;100972.81;10400754;28;20041;-85
2021/12/25 15:33:32;;;;;;;3.83;0.97;;;;;;;-10.47;100.00;100700.66;10345101;28;20057;-84
2021/12/25 15:38:33;;;;;;;4.60;1.23;;;;;;;-6.25;100.00;101212.50;10348816;28;20046;-91
2021/12/25 15:43:34;;;;;;;6.93;1.83;;;;;;;-7.85;100.00;100966.91;10328928;28;20040;-83
2021/12/25 15:48:36;;;;;;;3.57;1.40;;;;;;;-8.62;100.00;100901.38;10339946;28;20021;-84
2021/12/25 15:53:37;;;;;;;10.93;2.47;;;;;;;-8.78;100.00;100843.97;10343865;28;20402;-88
2021/12/25 15:58:38;;;;;;;2.43;1.50;;;;;;;-7.12;100.00;101176.34;10370569;28;20116;-90
2021/12/25 16:03:38;;;;;;;6.00;1.50;;;;;;;-7.63;100.00;101092.38;10346750;28;20104;-84
2021/12/25 16:08:39;;;;;;;8.37;1.97;;;;;;;-6.19;100.00;101327.22;10330951;28;20085;-83
2021/12/25 16:13:40;;;;;;;6.37;1.80;;;;;;;-9.60;100.00;100884.50;10386642;28;20548;-88
2021/12/25 16:18:40;;;;;;;5.83;2.20;;;;;;;-7.62;100.00;101152.94;10365650;28;20033;-83
2021/12/25 16:23:41;;;;;;;4.43;2.10;;;;;;;-6.88;100.00;101292.97;10357076;28;20041;-83
2021/12/25 16:28:42;;;;;;;8.77;1.93;;;;;;;-7.71;100.00;101126.94;10328377;28;20069;-89
2021/12/25 16:33:44;;;;;;;7.57;2.17;;;;;;;-9.38;100.00;100814.31;10347972;28;20052;-88
2021/12/25 16:38:45;;;;;;;7.23;3.03;;;;;;;-7.21;100.00;101236.84;10353485;28;20041;-89
2021/12/25 16:43:45;;;;;;;5.33;2.50;;;;;;;-6.30;100.00;101350.44;10344482;28;20056;-89
2021/12/25 16:48:46;;;;;;;31.97;15.83;;;;;;;-8.08;100.00;101210.22;10328344;28;20030;-87
2021/12/25 16:53:46;;;;;;;10.97;4.70;;;;;;;-9.79;100.00;100791.06;10339885;28;20928;-83
2021/12/25 16:58:47;;;;;;;12.93;3.23;;;;;;;-6.57;100.00;101352.81;10354305;28;20036;-81
2021/12/25 17:03:47;;;;;;;26.13;13.53;;;;;;;-6.57;100.00;101417.09;10371322;28;20033;-84
2021/12/25 17:08:48;;;;;;;3.37;1.53;;;;;;;-7.55;100.00;101293.13;10353460;28;20025;-86
2021/12/25 17:13:48;;;;;;;4.47;1.70;;;;;;;-11.03;100.00;100830.97;10353360;28;20068;-83
2021/12/25 17:18:49;;;;;;;6.23;2.00;;;;;;;-7.88;100.00;101187.16;10363582;28;20038;-83
2021/12/25 17:23:49;;;;;;;7.60;2.63;;;;;;;-8.38;100.00;101225.03;10326490;28;20092;-83
2021/12/25 17:28:50;;;;;;;3.27;1.77;;;;;;;-10.45;100.00;100918.78;10354494;28;20050;-83
2021/12/25 17:33:50;;;;;;;6.13;2.53;;;;;;;-9.61;100.00;100960.09;10366439;28;20057;-83
2021/12/25 17:38:52;;;;;;;5.37;2.10;;;;;;;-10.63;100.00;100708.19;10366237;28;20554;-83
2021/12/25 17:43:52;;;;;;;5.63;2.27;;;;;;;-9.54;100.00;100952.47;10350177;28;20041;-83
2021/12/25 17:48:53;;;;;;;3.33;1.67;;;;;;;-8.63;100.00;101115.91;10349916;28;20136;-83
2021/12/25 17:53:53;;;;;;;6.43;2.10;;;;;;;-10.59;100.00;100907.34;10349517;28;20041;-83
2021/12/25 17:58:54;;;;;;;4.23;1.97;;;;;;;-13.71;100.00;100316.84;10382188;28;20044;-83
2021/12/25 18:03:54;;;;;;;5.77;3.70;;;;;;;-8.80;100.00;101103.91;10349241;28;20048;-83
2021/12/25 18:08:55;;;;;;;6.43;2.47;;;;;;;-9.02;100.00;101176.81;10336484;28;20450;-83
2021/12/25 18:13:56;;;;;;;6.63;2.50;;;;;;;-8.71;100.00;101079.16;10339515;28;20088;-83
2021/12/25 18:18:57;;;;;;;8.13;2.63;;;;;;;-11.09;100.00;100690.53;10347947;28;20072;-83
2021/12/25 18:23:57;;;;;;;4.73;1.97;;;;;;;-11.45;100.00;100690.59;10354694;28;20136;-83
2021/12/25 18:28:57;;;;;;;4.30;2.20;;;;;;;-7.91;100.00;101264.94;10354033;28;20089;-83
2021/12/25 18:33:58;;;;;;;4.20;1.90;;;;;;;-7.82;100.00;101440.59;10321011;28;20046;-84
2021/12/25 18:39:00;;;;;;;9.97;2.20;;;;;;;-8.38;100.00;101374.59;10347163;28;20393;-83
2021/12/25 18:44:00;;;;;;;7.90;3.30;;;;;;;-8.36;100.00;101196.41;10360865;28;20041;-83
2021/12/25 18:49:01;;;;;;;12.30;3.20;;;;;;;-7.29;100.00;101367.72;10335052;28;20220;-82
2021/12/25 18:54:02;;;;;;;6.97;3.57;;;;;;;-9.19;100.00;101106.13;10346927;28;20042;-85
2021/12/25 18:59:04;;;;;;;7.03;2.50;;;;;;;-10.48;100.00;100958.91;10325469;28;20450;-83
2021/12/25 19:04:05;;;;;;;5.17;3.30;;;;;;;-7.20;100.00;101393.72;10344254;28;20042;-83
2021/12/25 19:09:05;;;;;;;7.03;2.80;;;;;;;-8.85;100.00;101178.97;10365320;28;20038;-85
2021/12/25 19:14:06;;;;;;;6.80;3.60;;;;;;;-9.16;100.00;101084.53;10349389;28;20076;-83
2021/12/25 19:19:07;;;;;;;7.87;3.20;;;;;;;-9.61;100.00;101073.81;10336130;28;20038;-83
2021/12/25 19:24:07;;;;;;;7.63;2.60;;;;;;;-8.04;100.00;101264.22;10327337;28;20041;-83
2021/12/25 19:29:07;;;;;;;6.50;2.77;;;;;;;-9.11;100.00;101102.81;10346559;28;20046;-83
2021/12/25 19:34:08;;;;;;;5.43;2.90;;;;;;;-8.67;100.00;101290.63;10346736;28;20073;-83
2021/12/25 19:39:09;;;;;;;8.73;3.20;;;;;;;-9.57;100.00;101113.47;10347434;28;20057;-83
2021/12/25 19:44:09;;;;;;;6.40;3.23;;;;;;;-7.66;100.00;101364.53;10314397;28;20038;-83
2021/12/25 19:49:10;;;;;;;6.00;3.50;;;;;;;-11.10;100.00;100849.16;10330026;28;20078;-83
2021/12/25 19:54:10;;;;;;;7.40;3.30;;;;;;;-10.48;100.00;100887.91;10346554;28;20034;-81
2021/12/25 19:59:12;;;;;;;14.13;5.33;;;;;;;-10.56;100.00;100909.78;10353801;28;20647;-83
2021/12/25 20:04:13;;;;;;;9.67;3.37;;;;;;;-13.76;100.00;100325.13;10366321;28;20120;-85
2021/12/25 20:09:13;;;;;;;7.73;3.43;;;;;;;-10.36;100.00;101073.28;10331980;28;20069;-83
2021/12/25 20:14:14;;;;;;;6.07;3.27;;;;;;;-10.78;100.00;100841.41;10332181;28;20067;-83
2021/12/25 20:19:16;;;;;;;9.07;3.53;;;;;;;-12.48;100.00;100560.31;10332902;28;20034;-83
2021/12/25 20:24:16;;;;;;;6.20;3.47;;;;;;;-8.25;100.00;101414.53;10333402;28;20037;-82
2021/12/25 20:29:17;;;;;;;6.67;3.17;;;;;;;-11.20;100.00;100987.25;10362513;28;20105;-85
2021/12/25 20:34:17;;;;;;;7.33;3.80;;;;;;;-9.92;100.00;100990.09;10343444;28;20092;-83
2021/12/25 20:39:18;;;;;;;7.73;3.80;;;;;;;-7.53;100.00;101376.75;10349661;28;20038;-83
2021/12/25 20:49:22;;;;;;;12.33;3.97;;;;;;;-10.95;100.00;100948.22;10349154;28;20510;-83
2021/12/25 20:54:22;;;;;;;5.30;3.23;;;;;;;-7.58;100.00;101388.81;10329954;28;20053;-83
2021/12/25 20:59:23;;;;;;;7.73;3.23;;;;;;;-11.81;100.00;100732.22;10363638;28;20041;-85
2021/12/25 21:04:24;;;;;;;10.03;3.87;;;;;;;-8.71;100.00;101230.44;10335233;28;20486;-83
2021/12/25 21:09:25;;;;;;;8.07;3.47;;;;;;;-9.27;100.00;101279.19;10345633;28;20033;-83
2021/12/25 21:14:27;;;;;;;6.27;3.10;;;;;;;-10.58;100.00;101004.84;10358960;28;20065;-83
2021/12/25 21:19:27;;;;;;;11.23;3.93;;;;;;;-11.47;100.00;100728.84;10351666;28;20033;-83
2021/12/25 21:24:28;;;;;;;8.57;3.03;;;;;;;-11.62;100.00;100707.78;10339843;28;20069;-82
2021/12/25 21:29:28;;;;;;;6.20;3.33;;;;;;;-11.77;100.00;100682.38;10352321;28;20046;-83
2021/12/25 21:34:29;;;;;;;7.97;2.97;;;;;;;-11.03;100.00;100998.47;10348462;28;20048;-85
2021/12/25 21:39:29;;;;;;;12.90;3.43;;;;;;;-11.87;100.00;100811.47;10373090;28;20034;-85
2021/12/25 21:44:30;;;;;;;10.67;2.97;;;;;;;-12.33;100.00;100724.63;10326668;28;20032;-84
2021/12/25 21:49:32;;;;;;;7.70;2.77;;;;;;;-11.95;100.00;100649.28;10330770;28;20065;-83
2021/12/25 21:54:33;;;;;;;8.57;3.83;;;;;;;-9.85;100.00;101002.00;10326182;28;20037;-84
2021/12/25 21:59:35;;;;;;;3.80;2.53;;;;;;;-8.19;100.00;101274.31;10344147;28;20045;-84
2021/12/25 22:04:46;;;;;;;7.07;3.17;;;;;;;-8.65;100.00;101249.47;10336549;28;20081;-83
2021/12/25 22:09:48;;;;;;;7.93;1.90;;;;;;;-9.46;100.00;101106.47;10340916;28;20033;-84
2021/12/25 22:14:49;;;;;;;4.53;2.97;;;;;;;-8.59;100.00;101240.16;10341112;28;20041;-85
2021/12/25 22:19:53;;;;;;;9.73;2.80;;;;;;;-12.14;100.00;100588.78;10324561;28;20042;-84
2021/12/25 22:24:54;;;;;;;5.47;2.53;;;;;;;-9.44;100.00;101077.88;10324997;28;20045;-85
2021/12/25 22:29:55;;;;;;;11.23;4.00;;;;;;;-9.13;100.00;101085.13;10308112;28;20140;-85
2021/12/25 22:34:56;;;;;;;8.47;3.07;;;;;;;-11.30;100.00;100760.31;10325274;28;20056;-84
2021/12/25 22:39:57;;;;;;;5.67;2.33;;;;;;;-11.08;100.00;100846.41;10324582;28;20046;-90
2021/12/25 22:44:57;;;;;;;5.93;2.50;;;;;;;-11.39;100.00;100718.47;10308172;28;20402;-84
2021/12/25 22:49:59;;;;;;;12.00;2.70;;;;;;;-9.42;100.00;101214.56;10356313;28;20038;-83
2021/12/25 22:54:59;;;;;;;5.90;2.77;;;;;;;-10.70;100.00;100826.69;10339824;28;20251;-84
2021/12/25 23:00:00;;;;;;;5.83;2.40;;;;;;;-9.84;100.00;101116.41;10347368;28;20039;-84
2021/12/25 23:05:06;;;;;;;5.87;2.97;;;;;;;-9.67;100.00;101083.16;10364715;28;20037;-89
2021/12/25 23:10:07;;;;;;;8.20;3.40;;;;;;;-8.65;100.00;101270.84;10349108;28;20029;-90
2021/12/25 23:15:08;;;;;;;8.77;3.33;;;;;;;-8.51;100.00;101301.81;10331473;28;20052;-84
2021/12/25 23:20:08;;;;;;;8.90;3.43;;;;;;;-8.22;100.00;101294.13;10331561;28;20478;-84
2021/12/25 23:25:09;;;;;;;8.07;3.70;;;;;;;-10.66;100.00;100907.97;10363637;28;20076;-84
2021/12/25 23:30:11;;;;;;;7.03;3.77;;;;;;;-11.31;100.00;101010.22;10315117;28;20054;-83
2021/12/25 23:35:11;;;;;;;10.77;3.53;;;;;;;-10.69;100.00;100914.34;10330535;28;20532;-83
2021/12/25 23:40:14;;;;;;;8.13;3.93;;;;;;;-11.80;100.00;100791.47;10352332;28;20129;-83
2021/12/25 23:45:32;;;;;;;10.53;3.70;;;;;;;-10.40;100.00;100970.66;10330013;28;20037;-83
2021/12/25 23:50:32;;;;;;;10.30;3.47;;;;;;;-13.98;100.00;100568.38;10334441;28;20037;-83
2021/12/25 23:55:33;;;;;;;8.23;3.70;;;;;;;-11.26;100.00;100907.94;10347088;28;20144;-90
